Time;durP1;ratioP1;P1;durP2;ratioP2;P2;SDS_P1;SDS_P2;PMS_P1;PMS_P2;Temp;Humidity;BMP_temperature;BMP_pressure;BME280_temperature;BME280_humidity;BME280_pressure;Samples;Min_cycle;Max_cycle;Signal;HPM_P1;HPM_P2
2022/11/11 00:00:59;;;;;;;25.97;23.40;;;5.70;99.90;;;;;;4993806;28;20645;-87
2022/11/11 00:03:26;;;;;;;23.87;21.67;;;5.80;99.90;;;;;;5007113;28;20644;-86
2022/11/11 00:05:53;;;;;;;23.50;21.40;;;5.70;99.90;;;;;;5007173;28;20613;-86
2022/11/11 00:08:20;;;;;;;22.17;20.17;;;5.90;99.90;;;;;;5010883;28;20609;-86
2022/11/11 00:10:48;;;;;;;22.03;20.23;;;5.70;99.90;;;;;;5005651;28;21173;-86
2022/11/11 00:13:15;;;;;;;22.13;20.03;;;5.60;99.90;;;;;;4992019;28;21187;-86
2022/11/11 00:15:42;;;;;;;22.77;20.77;;;5.50;99.90;;;;;;4973364;28;20672;-86
2022/11/11 00:26:28;;;;;;;22.77;20.17;;;5.50;99.90;;;;;;4985002;28;20737;-87
2022/11/11 00:28:55;;;;;;;22.00;20.00;;;5.80;99.90;;;;;;4991868;28;20636;-86
2022/11/11 00:31:22;;;;;;;21.20;19.30;;;5.60;99.90;;;;;;4988032;28;20660;-86
2022/11/11 00:33:49;;;;;;;22.20;20.10;;;5.60;99.90;;;;;;4989267;28;20622;-86
2022/11/11 00:36:15;;;;;;;21.43;19.50;;;5.50;99.90;;;;;;4988302;28;20672;-86
2022/11/11 00:38:48;;;;;;;22.90;20.80;;;5.50;99.90;;;;;;4984999;28;20629;-86
2022/11/11 00:41:17;;;;;;;18.10;15.90;;;5.70;99.90;;;;;;4987517;28;20322;-87
2022/11/11 00:43:47;;;;;;;17.93;16.13;;;5.20;99.90;;;;;;4988862;28;21027;-86
2022/11/11 00:51:44;;;;;;;17.80;16.13;;;5.40;99.90;;;;;;4991224;28;21307;-86
2022/11/11 00:54:11;;;;;;;18.83;17.23;;;5.40;99.90;;;;;;4992655;28;20676;-86
2022/11/11 00:56:38;;;;;;;18.33;16.30;;;5.50;99.90;;;;;;4988808;28;20673;-87
2022/11/11 00:59:07;;;;;;;17.73;16.00;;;5.40;99.90;;;;;;4989664;28;20632;-85
2022/11/11 01:01:35;;;;;;;18.50;17.07;;;5.70;99.90;;;;;;4993006;28;20663;-86
2022/11/11 01:04:02;;;;;;;17.83;16.23;;;5.60;99.90;;;;;;4992811;28;20628;-87
2022/11/11 01:06:28;;;;;;;18.80;16.90;;;5.50;99.90;;;;;;4999753;28;20624;-86
2022/11/11 01:08:55;;;;;;;18.00;16.57;;;5.30;99.90;;;;;;4988126;28;20628;-88
2022/11/11 01:11:24;;;;;;;19.40;17.50;;;5.40;99.90;;;;;;4991809;28;20659;-86
2022/11/11 01:13:51;;;;;;;17.43;15.73;;;5.30;99.90;;;;;;4998299;28;20632;-85
2022/11/11 01:16:21;;;;;;;17.63;15.93;;;5.50;99.90;;;;;;4987736;28;20666;-87
2022/11/11 01:18:48;;;;;;;16.20;14.77;;;5.10;99.90;;;;;;4985833;28;20712;-86
2022/11/11 01:21:17;;;;;;;17.13;15.30;;;5.20;99.90;;;;;;4988509;28;20660;-87
2022/11/11 01:23:45;;;;;;;15.57;14.17;;;5.20;99.90;;;;;;4984236;28;20629;-87
2022/11/11 01:26:14;;;;;;;15.40;14.20;;;5.20;99.90;;;;;;4989777;28;21246;-85
2022/11/11 01:28:42;;;;;;;14.97;13.70;;;5.20;99.90;;;;;;4986025;28;21189;-86
2022/11/11 01:31:11;;;;;;;16.80;15.20;;;5.00;99.90;;;;;;4993708;28;20667;-87
2022/11/11 01:33:39;;;;;;;18.20;14.83;;;5.30;99.90;;;;;;4983151;28;21444;-87
2022/11/11 01:36:09;;;;;;;17.40;15.80;;;5.20;99.90;;;;;;4985969;28;20672;-85
2022/11/11 01:38:37;;;;;;;17.73;15.97;;;5.10;99.90;;;;;;4984986;28;20634;-87
2022/11/11 01:41:31;;;;;;;18.27;16.43;;;5.30;99.90;;;;;;4985634;28;20664;-85
2022/11/11 01:43:53;;;;;;;18.40;16.60;;;5.10;99.90;;;;;;4988970;28;20708;-87
2022/11/11 01:46:27;;;;;;;19.60;17.17;;;5.40;99.90;;;;;;4988005;28;20624;-85
2022/11/11 01:51:47;;;;;;;19.30;17.60;;;5.00;99.90;;;;;;4987862;28;20639;-86
2022/11/11 01:54:18;;;;;;;20.50;18.40;;;5.20;99.90;;;;;;4988716;28;20651;-85
2022/11/11 01:56:49;;;;;;;22.53;19.17;;;5.40;99.90;;;;;;4987728;28;20672;-85
2022/11/11 01:59:17;;;;;;;20.83;18.97;;;5.20;99.90;;;;;;4984258;28;20726;-85
2022/11/11 02:01:45;;;;;;;23.73;21.23;;;5.00;99.90;;;;;;4987630;28;20664;-86
2022/11/11 02:07:02;;;;;;;22.13;18.93;;;5.00;99.90;;;;;;4986742;28;21189;-85
2022/11/11 02:09:30;;;;;;;23.13;20.70;;;4.90;99.90;;;;;;4984833;28;20646;-85
2022/11/11 02:14:48;;;;;;;23.50;20.87;;;5.10;99.90;;;;;;4985940;28;20970;-86
2022/11/11 02:17:16;;;;;;;22.90;20.80;;;5.00;99.90;;;;;;4984956;28;20679;-85
2022/11/11 02:19:50;;;;;;;19.40;17.47;;;5.20;99.90;;;;;;4987461;28;20680;-86
2022/11/11 02:22:23;;;;;;;20.83;18.73;;;4.90;99.90;;;;;;4982255;28;21201;-86
2022/11/11 02:24:53;;;;;;;17.97;16.23;;;4.90;99.90;;;;;;4984459;28;20628;-84
2022/11/11 02:27:21;;;;;;;17.13;15.63;;;5.00;99.90;;;;;;4984332;28;20628;-84
2022/11/11 02:29:52;;;;;;;18.03;15.93;;;4.70;99.90;;;;;;4985543;28;20628;-85
2022/11/11 02:32:19;;;;;;;17.30;15.80;;;4.70;99.90;;;;;;4985573;28;20656;-85
2022/11/11 02:34:48;;;;;;;18.37;16.67;;;4.60;99.90;;;;;;4986365;28;20638;-85
2022/11/11 02:37:18;;;;;;;17.03;15.33;;;4.70;99.90;;;;;;4976179;28;20676;-85
2022/11/11 02:39:47;;;;;;;17.97;16.30;;;4.80;99.90;;;;;;4986048;28;20630;-85
2022/11/11 02:42:17;;;;;;;17.50;16.10;;;4.70;99.90;;;;;;4985923;28;20672;-85
2022/11/11 02:44:46;;;;;;;17.63;16.13;;;4.80;99.90;;;;;;4983639;28;20644;-85
2022/11/11 02:47:12;;;;;;;19.70;17.90;;;4.30;99.90;;;;;;4987657;28;20625;-85
2022/11/11 02:49:39;;;;;;;22.23;20.13;;;5.10;99.90;;;;;;4982915;28;20633;-85
2022/11/11 02:52:06;;;;;;;21.33;19.23;;;4.90;99.90;;;;;;4984378;28;20656;-85
2022/11/11 02:54:33;;;;;;;20.90;18.80;;;4.90;99.90;;;;;;4985154;28;20636;-85
2022/11/11 02:57:08;;;;;;;22.07;20.10;;;5.00;99.90;;;;;;4985706;28;20673;-86
2022/11/11 02:59:38;;;;;;;20.30;18.60;;;4.80;99.90;;;;;;4984655;28;20636;-86
2022/11/11 03:02:06;;;;;;;21.93;19.73;;;4.60;99.90;;;;;;4990861;28;21200;-85
2022/11/11 03:04:33;;;;;;;16.93;15.63;;;4.70;99.90;;;;;;5002273;28;20624;-85
2022/11/11 03:07:00;;;;;;;17.60;16.10;;;4.70;99.90;;;;;;4989899;28;20980;-85
2022/11/11 03:09:27;;;;;;;18.70;16.80;;;4.20;99.90;;;;;;4990434;28;20624;-84
2022/11/11 03:11:54;;;;;;;19.27;17.40;;;4.10;99.90;;;;;;4986890;28;20655;-85
2022/11/11 03:14:20;;;;;;;19.37;17.47;;;3.80;99.90;;;;;;4980354;28;20637;-86
2022/11/11 03:19:42;;;;;;;57.47;22.63;;;4.70;99.90;;;;;;4954852;28;20629;-85
2022/11/11 03:22:08;;;;;;;151.50;34.53;;;4.50;99.90;;;;;;4991774;28;20747;-85
2022/11/11 03:27:18;;;;;;;175.13;38.60;;;4.60;99.90;;;;;;4985494;28;20686;-85
2022/11/11 03:29:45;;;;;;;160.50;32.90;;;4.20;99.90;;;;;;4986332;28;20624;-85
2022/11/11 03:32:13;;;;;;;224.27;36.47;;;4.20;99.90;;;;;;4985932;28;21580;-84
2022/11/11 03:34:40;;;;;;;494.60;56.00;;;4.30;99.90;;;;;;4982816;28;20632;-84
2022/11/11 03:39:53;;;;;;;334.67;42.90;;;4.50;99.90;;;;;;4981717;28;20940;-85
2022/11/11 03:42:20;;;;;;;322.33;42.47;;;4.40;99.90;;;;;;4983491;28;20656;-85
2022/11/11 03:44:47;;;;;;;448.97;53.50;;;4.70;99.90;;;;;;4984887;28;20983;-85
2022/11/11 03:47:15;;;;;;;345.93;44.20;;;4.50;99.90;;;;;;4991599;28;21196;-85
2022/11/11 03:49:44;;;;;;;159.20;30.77;;;4.60;99.90;;;;;;4990641;28;20635;-85
2022/11/11 03:52:11;;;;;;;152.00;40.30;;;4.60;99.90;;;;;;4986997;28;21088;-85
2022/11/11 03:54:38;;;;;;;311.27;37.93;;;4.70;99.90;;;;;;4978518;28;20636;-84
2022/11/11 03:59:49;;;;;;;310.33;41.80;;;4.50;99.90;;;;;;4985319;28;20687;-85
2022/11/11 04:10:30;;;;;;;172.97;39.37;;;4.60;99.90;;;;;;4989610;28;20715;-85
2022/11/11 04:23:58;;;;;;;182.10;35.70;;;4.50;99.90;;;;;;4980469;28;20608;-85
2022/11/11 04:26:24;;;;;;;253.53;43.07;;;4.50;99.90;;;;;;4985062;28;21078;-86
2022/11/11 04:31:35;;;;;;;133.67;29.00;;;4.60;99.90;;;;;;4983679;28;20683;-85
2022/11/11 04:34:02;;;;;;;181.67;33.20;;;4.30;99.90;;;;;;4987289;28;21174;-85
2022/11/11 04:36:28;;;;;;;172.33;33.47;;;4.60;99.90;;;;;;4986087;28;20664;-85
2022/11/11 04:41:40;;;;;;;141.30;29.07;;;4.50;99.90;;;;;;4985756;28;20675;-84
2022/11/11 04:46:51;;;;;;;282.57;36.90;;;4.60;99.90;;;;;;4984718;28;20699;-85
2022/11/11 04:49:19;;;;;;;279.03;36.47;;;4.60;99.90;;;;;;4986747;28;20633;-85
2022/11/11 04:56:46;;;;;;;459.03;47.93;;;4.50;99.90;;;;;;4994036;28;20620;-86
2022/11/11 04:57:15;;;;;;;301.33;37.50;;;4.50;99.90;;;;;;4991715;28;20681;-85
2022/11/11 04:59:42;;;;;;;325.03;40.33;;;4.30;99.90;;;;;;4990147;28;20624;-85
2022/11/11 05:04:54;;;;;;;224.60;26.00;;;4.30;99.90;;;;;;4957869;28;20615;-86
2022/11/11 05:10:06;;;;;;;149.17;22.97;;;4.30;99.90;;;;;;4991433;28;20593;-86
2022/11/11 05:12:32;;;;;;;94.80;22.00;;;4.60;99.90;;;;;;4999024;28;20715;-86
2022/11/11 05:23:15;;;;;;;67.87;21.70;;;4.70;99.90;;;;;;4980539;28;20624;-86
2022/11/11 05:25:41;;;;;;;44.37;14.90;;;4.60;99.90;;;;;;4995613;28;20625;-86
2022/11/11 05:28:08;;;;;;;38.30;20.87;;;4.50;99.90;;;;;;4991076;28;21291;-85
2022/11/11 05:30:35;;;;;;;18.73;16.47;;;4.50;99.90;;;;;;4993119;28;20213;-86
2022/11/11 05:33:03;;;;;;;42.87;17.70;;;4.80;99.90;;;;;;5001418;28;20677;-86
2022/11/11 05:35:31;;;;;;;39.53;18.47;;;4.70;99.90;;;;;;4993833;28;21549;-86
2022/11/11 05:38:20;;;;;;;53.03;19.70;;;4.70;99.90;;;;;;5002891;28;21021;-85
2022/11/11 05:40:48;;;;;;;107.40;26.17;;;4.40;99.90;;;;;;4989472;28;20992;-86
2022/11/11 05:43:15;;;;;;;96.87;24.33;;;4.60;99.90;;;;;;4984608;28;20651;-86
2022/11/11 05:45:42;;;;;;;44.73;17.60;;;4.50;99.90;;;;;;4988181;28;20997;-86
2022/11/11 05:48:09;;;;;;;80.87;25.37;;;4.70;99.90;;;;;;4976747;28;20620;-86
2022/11/11 05:50:40;;;;;;;98.47;20.93;;;4.70;99.90;;;;;;4993668;28;20624;-85
2022/11/11 05:53:07;;;;;;;327.93;40.90;;;4.20;99.90;;;;;;4984861;28;20640;-85
2022/11/11 05:55:33;;;;;;;47.67;17.27;;;4.60;99.90;;;;;;4986319;28;20659;-85
2022/11/11 05:58:00;;;;;;;232.73;37.50;;;4.40;99.90;;;;;;4985584;28;20781;-86
2022/11/11 06:00:27;;;;;;;557.60;61.27;;;4.60;99.90;;;;;;4992807;28;20629;-85
2022/11/11 06:02:54;;;;;;;381.07;50.40;;;4.70;99.90;;;;;;4990039;28;20659;-86
2022/11/11 06:05:21;;;;;;;465.57;52.83;;;4.60;99.90;;;;;;4984496;28;20632;-86
2022/11/11 06:07:53;;;;;;;387.40;41.60;;;4.50;99.90;;;;;;4980795;28;20627;-85
2022/11/11 06:10:32;;;;;;;323.63;39.70;;;4.50;99.90;;;;;;4985535;28;20648;-85
2022/11/11 06:13:03;;;;;;;509.83;46.60;;;4.60;99.90;;;;;;4986765;28;20690;-85
2022/11/11 06:15:31;;;;;;;334.23;41.03;;;4.40;99.90;;;;;;4980343;28;20723;-86
2022/11/11 06:17:57;;;;;;;165.90;28.83;;;4.10;99.90;;;;;;4985899;28;20669;-85
2022/11/11 06:20:24;;;;;;;132.10;26.27;;;4.30;99.90;;;;;;4986648;28;20641;-85
2022/11/11 06:23:01;;;;;;;39.93;14.97;;;4.40;99.90;;;;;;4984070;28;20661;-85
2022/11/11 06:28:14;;;;;;;168.97;26.93;;;4.60;99.90;;;;;;4987092;28;20633;-86
2022/11/11 06:30:42;;;;;;;92.03;23.73;;;4.50;99.90;;;;;;4988515;28;20644;-85
2022/11/11 06:33:09;;;;;;;287.30;43.77;;;4.60;99.90;;;;;;4988485;28;20623;-85
2022/11/11 06:35:37;;;;;;;76.93;16.60;;;4.20;99.90;;;;;;4980940;28;20657;-86
2022/11/11 06:38:07;;;;;;;103.53;22.37;;;4.00;99.90;;;;;;4987056;28;20672;-87
2022/11/11 06:40:33;;;;;;;67.50;18.03;;;3.70;99.90;;;;;;4984063;28;20649;-87
2022/11/11 06:43:01;;;;;;;95.37;20.37;;;4.50;99.90;;;;;;4981429;28;20633;-87
2022/11/11 06:45:29;;;;;;;92.57;19.40;;;4.40;99.90;;;;;;4983411;28;21430;-87
2022/11/11 06:47:56;;;;;;;46.67;18.37;;;4.60;99.90;;;;;;4987786;28;20621;-87
2022/11/11 06:50:23;;;;;;;83.23;18.97;;;4.30;99.90;;;;;;4987887;28;20644;-87
2022/11/11 06:52:50;;;;;;;136.53;23.57;;;4.10;99.90;;;;;;4984189;28;20748;-88
2022/11/11 06:55:18;;;;;;;188.57;28.70;;;4.10;99.90;;;;;;4987884;28;20636;-86
2022/11/11 06:57:45;;;;;;;247.83;42.77;;;4.20;99.90;;;;;;4986506;28;20669;-88
2022/11/11 07:00:12;;;;;;;235.30;35.57;;;4.20;99.90;;;;;;4988751;28;20633;-86
2022/11/11 07:02:39;;;;;;;147.53;26.43;;;4.10;99.90;;;;;;4986552;28;20841;-88
2022/11/11 07:05:07;;;;;;;209.10;24.53;;;4.00;99.90;;;;;;4989074;28;20995;-88
2022/11/11 07:07:33;;;;;;;298.00;37.30;;;4.20;99.90;;;;;;4989810;28;20614;-88
2022/11/11 07:10:01;;;;;;;203.23;29.93;;;4.20;99.90;;;;;;4983920;28;20632;-87
2022/11/11 07:12:29;;;;;;;238.20;32.50;;;4.10;99.90;;;;;;4984151;28;20637;-87
2022/11/11 07:14:55;;;;;;;72.37;19.33;;;4.10;99.90;;;;;;4985991;28;20631;-86
2022/11/11 07:17:22;;;;;;;61.63;16.57;;;4.20;99.90;;;;;;4987237;28;20673;-87
2022/11/11 07:19:49;;;;;;;101.17;17.77;;;4.10;99.90;;;;;;4985353;28;20636;-87
2022/11/11 07:22:17;;;;;;;83.27;20.83;;;4.10;99.90;;;;;;4985934;28;20631;-87
2022/11/11 07:24:44;;;;;;;82.03;21.17;;;4.30;99.90;;;;;;4979303;28;20675;-87
2022/11/11 07:27:11;;;;;;;41.63;14.30;;;4.50;99.90;;;;;;4982652;28;20662;-86
2022/11/11 07:29:39;;;;;;;35.47;13.37;;;4.30;99.90;;;;;;4988460;28;20633;-87
2022/11/11 07:32:06;;;;;;;50.43;14.40;;;4.80;99.90;;;;;;4988350;28;20731;-87
2022/11/11 07:34:33;;;;;;;98.73;22.20;;;5.00;99.90;;;;;;4991811;28;20633;-88
2022/11/11 07:37:00;;;;;;;98.13;20.33;;;5.10;99.90;;;;;;4989712;28;20676;-88
2022/11/11 07:39:27;;;;;;;116.20;19.00;;;5.00;99.90;;;;;;4989477;28;20624;-88
2022/11/11 07:41:53;;;;;;;24.37;14.43;;;4.70;99.90;;;;;;4987206;28;20983;-87
2022/11/11 07:44:20;;;;;;;36.63;12.90;;;4.80;99.90;;;;;;4985664;28;20636;-87
2022/11/11 07:46:48;;;;;;;16.77;14.97;;;4.80;99.90;;;;;;4985745;28;20663;-87
2022/11/11 07:49:15;;;;;;;15.13;12.37;;;4.70;99.90;;;;;;4986374;28;20723;-87
2022/11/11 07:51:42;;;;;;;16.63;12.93;;;5.00;99.90;;;;;;4984897;28;20641;-85
2022/11/11 07:54:09;;;;;;;16.00;14.30;;;5.00;99.90;;;;;;4983632;28;20654;-85
2022/11/11 07:56:36;;;;;;;15.50;14.00;;;4.60;99.90;;;;;;4988613;28;21312;-86
2022/11/11 07:59:03;;;;;;;50.17;19.13;;;5.00;99.90;;;;;;4987613;28;20625;-86
2022/11/11 08:01:29;;;;;;;25.00;13.50;;;5.00;99.90;;;;;;4984552;28;20641;-86
2022/11/11 08:03:58;;;;;;;35.80;14.40;;;5.10;99.90;;;;;;4989191;28;20631;-86
2022/11/11 08:06:25;;;;;;;11.37;10.27;;;5.00;99.90;;;;;;4986919;28;21224;-86
2022/11/11 08:08:52;;;;;;;15.27;11.43;;;4.80;99.90;;;;;;4986918;28;20620;-86
2022/11/11 08:13:39;;;;;;;10.90;9.80;;;5.30;99.90;;;;;;4984314;28;20636;-86
2022/11/11 08:14:05;;;;;;;11.23;10.20;;;5.10;99.90;;;;;;4984521;28;20736;-86
2022/11/11 08:16:32;;;;;;;11.03;10.03;;;5.60;99.90;;;;;;4983363;28;21072;-86
2022/11/11 08:19:00;;;;;;;15.93;10.30;;;5.90;99.90;;;;;;4985643;28;20216;-85
2022/11/11 08:21:27;;;;;;;11.80;10.30;;;5.80;99.90;;;;;;4987275;28;21142;-85
2022/11/11 08:23:54;;;;;;;10.63;9.73;;;5.80;99.90;;;;;;4988915;28;20612;-85
2022/11/11 08:26:23;;;;;;;9.37;8.67;;;5.80;99.90;;;;;;4986020;28;21307;-86
2022/11/11 08:28:52;;;;;;;11.33;9.60;;;6.00;99.90;;;;;;4986543;28;21059;-86
2022/11/11 08:31:19;;;;;;;10.20;9.20;;;6.00;99.90;;;;;;4989751;28;20726;-86
2022/11/11 08:33:46;;;;;;;9.07;8.17;;;5.70;99.90;;;;;;4988271;28;20636;-86
2022/11/11 08:36:14;;;;;;;9.60;8.60;;;5.90;99.90;;;;;;4987964;28;20652;-87
2022/11/11 08:38:41;;;;;;;9.70;8.70;;;6.10;99.90;;;;;;4988200;28;20684;-86
2022/11/11 08:41:08;;;;;;;7.20;6.50;;;5.90;99.90;;;;;;4993240;28;20662;-86
2022/11/11 08:43:34;;;;;;;9.47;8.57;;;6.20;99.90;;;;;;4996458;28;20639;-86
2022/11/11 08:46:03;;;;;;;9.73;7.10;;;5.70;99.90;;;;;;4987586;28;20667;-86
2022/11/11 08:48:30;;;;;;;8.30;7.60;;;6.10;99.90;;;;;;4987867;28;20621;-87
2022/11/11 08:50:57;;;;;;;8.13;7.43;;;6.20;99.90;;;;;;5001768;28;20624;-86
2022/11/11 08:53:26;;;;;;;9.67;7.87;;;6.40;99.90;;;;;;4986835;28;20639;-87
2022/11/11 08:55:53;;;;;;;10.97;8.60;;;6.80;99.90;;;;;;4988748;28;20666;-86
2022/11/11 08:58:20;;;;;;;8.50;7.70;;;7.00;99.90;;;;;;4991068;28;20679;-87
2022/11/11 09:00:47;;;;;;;11.60;8.90;;;6.50;99.90;;;;;;4988868;28;20698;-87
2022/11/11 09:03:14;;;;;;;18.77;16.70;;;6.60;99.90;;;;;;4983808;28;20639;-85
2022/11/11 09:05:41;;;;;;;14.63;13.20;;;7.20;99.90;;;;;;4992808;28;20663;-87
2022/11/11 09:08:09;;;;;;;10.13;8.00;;;6.90;99.90;;;;;;4990424;28;21094;-86
2022/11/11 09:10:39;;;;;;;84.40;63.97;;;7.70;99.90;;;;;;4981351;28;20633;-86
2022/11/11 09:13:06;;;;;;;10.77;9.70;;;7.90;99.90;;;;;;4987088;28;20624;-87
2022/11/11 09:15:33;;;;;;;7.57;6.70;;;8.40;99.90;;;;;;4990093;28;20649;-86
2022/11/11 09:18:00;;;;;;;6.93;6.33;;;8.40;99.90;;;;;;4977951;28;21023;-87
2022/11/11 09:20:27;;;;;;;7.77;6.53;;;9.40;99.90;;;;;;4976995;28;20644;-87
2022/11/11 09:22:54;;;;;;;8.87;5.90;;;9.60;99.90;;;;;;4981759;28;20641;-88
2022/11/11 09:25:22;;;;;;;6.40;5.80;;;10.30;99.90;;;;;;4983554;28;20648;-87
2022/11/11 09:27:56;;;;;;;7.90;4.90;;;10.40;99.90;;;;;;4983537;28;20639;-87
2022/11/11 09:30:23;;;;;;;5.77;5.37;;;9.50;99.90;;;;;;4986852;28;20621;-87
2022/11/11 09:32:50;;;;;;;8.07;5.30;;;10.00;99.90;;;;;;4985636;28;20624;-88
2022/11/11 09:35:17;;;;;;;11.00;6.30;;;10.80;99.90;;;;;;4986376;28;20620;-87
2022/11/11 09:37:53;;;;;;;9.23;5.37;;;10.60;99.90;;;;;;4986147;28;20668;-87
2022/11/11 09:40:22;;;;;;;5.93;5.23;;;10.70;99.90;;;;;;4979408;28;20644;-87
2022/11/11 09:43:00;;;;;;;7.20;6.47;;;11.60;99.90;;;;;;4990232;28;20674;-86
2022/11/11 09:45:36;;;;;;;9.53;4.77;;;11.80;99.90;;;;;;4989697;28;20740;-87
2022/11/11 09:48:13;;;;;;;6.17;5.10;;;11.80;72.10;;;;;;4996536;28;20619;-86
2022/11/11 09:50:41;;;;;;;4.73;4.43;;;11.80;99.90;;;;;;4985208;28;20671;-86
2022/11/11 09:53:17;;;;;;;8.10;4.73;;;11.10;39.70;;;;;;4992893;28;20628;-87
2022/11/11 09:55:49;;;;;;;5.17;4.70;;;11.20;68.40;;;;;;4991798;28;20668;-86
2022/11/11 09:58:20;;;;;;;6.57;4.80;;;11.90;10.60;;;;;;5000959;28;20678;-86
2022/11/11 10:00:51;;;;;;;5.17;4.77;;;12.70;1.00;;;;;;4990410;28;21587;-87
2022/11/11 10:03:21;;;;;;;6.50;5.90;;;12.30;1.00;;;;;;4980557;28;20632;-86
2022/11/11 10:05:56;;;;;;;5.60;5.10;;;12.00;60.80;;;;;;4998458;28;20662;-87
2022/11/11 10:08:26;;;;;;;6.70;6.00;;;12.60;1.00;;;;;;4991963;28;21139;-87
2022/11/11 10:10:54;;;;;;;4.33;3.90;;;13.10;1.00;;;;;;4988829;28;20675;-87
2022/11/11 10:13:29;;;;;;;5.17;4.53;;;13.60;1.00;;;;;;4990889;28;20639;-87
2022/11/11 10:16:03;;;;;;;5.63;4.40;;;13.50;1.00;;;;;;4989255;28;20740;-87
2022/11/11 10:19:01;;;;;;;5.33;4.83;;;12.80;55.00;;;;;;4991266;28;20680;-87
2022/11/11 10:21:36;;;;;;;4.80;4.30;;;12.90;1.00;;;;;;4980300;28;20675;-88
2022/11/11 10:24:11;;;;;;;5.80;5.10;;;13.70;1.00;;;;;;4977317;28;20616;-87
2022/11/11 10:26:40;;;;;;;8.60;4.90;;;12.90;1.00;;;;;;4977947;28;20663;-87
2022/11/11 10:29:13;;;;;;;6.27;4.43;;;13.20;1.00;;;;;;4979691;28;20627;-87
2022/11/11 10:31:42;;;;;;;4.90;4.00;;;13.90;1.00;;;;;;4978580;28;22299;-87
2022/11/11 10:34:11;;;;;;;5.37;4.50;;;13.60;1.00;;;;;;4977486;28;20637;-88
2022/11/11 10:36:43;;;;;;;4.90;4.43;;;14.50;99.90;;;;;;4976729;28;21339;-86
2022/11/11 10:39:15;;;;;;;6.03;4.00;;;15.50;1.00;;;;;;4975747;28;20657;-88
2022/11/11 10:41:46;;;;;;;5.70;5.20;;;15.40;1.00;;;;;;4977255;28;20637;-89
2022/11/11 10:44:26;;;;;;;6.13;3.90;;;16.90;99.90;;;;;;4978726;28;20656;-87
2022/11/11 10:47:03;;;;;;;4.77;4.37;;;17.30;1.00;;;;;;4979434;28;20656;-87
2022/11/11 10:49:33;;;;;;;4.50;4.03;;;18.40;1.00;;;;;;4978731;28;20737;-87
2022/11/11 10:52:07;;;;;;;6.43;4.47;;;18.10;99.90;;;;;;4975624;28;21481;-87
2022/11/11 10:54:37;;;;;;;6.33;4.30;;;18.20;99.90;;;;;;4977956;28;20644;-87
2022/11/11 10:57:11;;;;;;;4.83;4.10;;;17.80;1.00;;;;;;4975033;28;20679;-87
2022/11/11 10:59:47;;;;;;;4.17;3.67;;;16.70;1.00;;;;;;4975667;28;20664;-88
2022/11/11 11:02:21;;;;;;;6.60;4.80;;;17.00;99.90;;;;;;4976629;28;20641;-88
2022/11/11 11:04:52;;;;;;;4.43;3.87;;;16.40;1.00;;;;;;4978880;28;20643;-88
2022/11/11 11:07:24;;;;;;;6.77;4.17;;;16.90;17.00;;;;;;4977131;28;20737;-87
2022/11/11 11:09:57;;;;;;;6.30;4.10;;;16.40;1.00;;;;;;4981138;28;20978;-86
2022/11/11 11:12:29;;;;;;;9.23;5.13;;;17.40;99.90;;;;;;4975683;28;20655;-86
2022/11/11 11:15:03;;;;;;;21.93;6.40;;;17.60;99.90;;;;;;4977867;28;20637;-87
2022/11/11 11:17:36;;;;;;;6.67;4.97;;;17.10;1.00;;;;;;4974263;28;20672;-87
2022/11/11 11:20:12;;;;;;;5.83;5.20;;;16.70;1.00;;;;;;4977537;28;21025;-87
2022/11/11 11:22:49;;;;;;;7.90;5.10;;;15.50;1.00;;;;;;4977510;28;20691;-86
2022/11/11 11:25:18;;;;;;;7.87;5.37;;;16.60;1.00;;;;;;4977681;28;20765;-85
2022/11/11 11:27:45;;;;;;;6.53;5.33;;;16.90;99.90;;;;;;4977653;28;20628;-86
2022/11/11 11:30:17;;;;;;;7.23;5.10;;;16.50;1.00;;;;;;4975880;28;20632;-88
2022/11/11 11:32:56;;;;;;;7.00;5.20;;;17.50;77.00;;;;;;4986006;28;21888;-86
2022/11/11 11:35:36;;;;;;;5.00;4.60;;;17.60;1.00;;;;;;4990887;28;20635;-86
2022/11/11 11:38:04;;;;;;;8.33;5.37;;;17.50;1.00;;;;;;4982441;28;21733;-86
2022/11/11 11:40:46;;;;;;;5.27;4.77;;;16.50;56.80;;;;;;4982577;28;20639;-86
2022/11/11 11:43:31;;;;;;;5.60;4.47;;;16.40;99.90;;;;;;4991093;28;20658;-86
2022/11/11 11:46:01;;;;;;;6.20;5.60;;;17.70;1.00;;;;;;4986078;28;20958;-87
2022/11/11 11:48:43;;;;;;;7.13;4.53;;;18.10;99.90;;;;;;4987575;28;20955;-87
2022/11/11 11:51:20;;;;;;;5.17;4.40;;;18.60;99.90;;;;;;4981551;28;20632;-87
2022/11/11 11:53:57;;;;;;;7.57;5.27;;;18.30;99.90;;;;;;4986473;28;20625;-88
2022/11/11 11:56:35;;;;;;;5.83;4.80;;;18.90;99.90;;;;;;4980187;28;20633;-89
2022/11/11 11:59:09;;;;;;;5.23;4.83;;;19.40;1.00;;;;;;4989919;28;20648;-89
2022/11/11 12:01:46;;;;;;;6.93;4.73;;;20.10;1.00;;;;;;4985319;28;20652;-88
2022/11/11 12:04:35;;;;;;;5.20;4.43;;;18.30;1.00;;;;;;4993301;28;20631;-89
2022/11/11 12:07:12;;;;;;;5.30;4.70;;;18.50;1.00;;;;;;4981963;28;20752;-88
2022/11/11 12:09:54;;;;;;;5.70;4.47;;;18.60;1.00;;;;;;4990502;28;20656;-88
2022/11/11 12:12:32;;;;;;;6.00;4.57;;;19.50;1.00;;;;;;4993665;28;20663;-89
2022/11/11 12:15:07;;;;;;;4.83;4.27;;;20.90;1.00;;;;;;4984418;28;20612;-88
2022/11/11 12:17:48;;;;;;;4.17;3.87;;;19.90;99.90;;;;;;4977830;28;20646;-88
2022/11/11 12:20:17;;;;;;;4.73;4.07;;;21.80;99.90;;;;;;4986642;28;20632;-89
2022/11/11 12:23:08;;;;;;;4.37;3.97;;;23.80;1.00;;;;;;4990089;28;20657;-89
2022/11/11 12:25:50;;;;;;;3.93;3.60;;;23.90;1.00;;;;;;4990468;28;20641;-88
2022/11/11 12:28:30;;;;;;;3.57;3.27;;;21.60;1.00;;;;;;4987029;28;20636;-88
2022/11/11 12:31:10;;;;;;;2.90;2.70;;;19.40;1.00;;;;;;4997171;28;21183;-89
2022/11/11 12:33:59;;;;;;;4.83;3.57;;;18.80;99.90;;;;;;4988484;28;20644;-88
2022/11/11 12:36:34;;;;;;;2.83;2.60;;;18.90;99.90;;;;;;4988952;28;20707;-88
2022/11/11 12:39:06;;;;;;;6.77;2.97;;;17.70;99.90;;;;;;4986135;28;20659;-88
2022/11/11 12:41:50;;;;;;;4.83;3.77;;;18.00;58.00;;;;;;4990656;28;20668;-89
2022/11/11 12:44:18;;;;;;;5.00;4.00;;;18.80;1.00;;;;;;4983239;28;20632;-88
2022/11/11 12:46:56;;;;;;;4.47;4.00;;;18.40;99.90;;;;;;4986136;28;20637;-87
2022/11/11 12:49:40;;;;;;;8.83;4.70;;;19.20;1.00;;;;;;4987179;28;20627;-87
2022/11/11 12:52:22;;;;;;;4.80;4.30;;;19.10;1.00;;;;;;4983558;28;21022;-87
2022/11/11 12:55:02;;;;;;;12.13;6.70;;;19.80;1.00;;;;;;4991153;28;20676;-87
2022/11/11 12:57:36;;;;;;;6.37;4.13;;;20.10;1.00;;;;;;4984190;28;21013;-87
2022/11/11 13:00:09;;;;;;;8.43;4.40;;;19.50;1.00;;;;;;4991664;28;20663;-89
2022/11/11 13:03:01;;;;;;;5.33;4.90;;;19.20;1.00;;;;;;4979577;28;20649;-89
2022/11/11 13:05:33;;;;;;;5.40;4.17;;;18.60;1.00;;;;;;4991085;28;20616;-88
2022/11/11 13:08:43;;;;;;;5.77;4.20;;;18.00;62.20;;;;;;4996002;28;20612;-87
2022/11/11 13:11:17;;;;;;;5.07;3.83;;;17.80;99.90;;;;;;4982239;28;20644;-89
2022/11/11 13:13:59;;;;;;;5.63;4.30;;;17.60;99.90;;;;;;4987679;28;20686;-88
2022/11/11 13:16:27;;;;;;;5.10;4.00;;;17.30;1.00;;;;;;4986192;28;20711;-88
2022/11/11 13:18:58;;;;;;;5.03;4.53;;;17.90;1.00;;;;;;4996091;28;20725;-87
2022/11/11 13:21:33;;;;;;;8.20;4.50;;;18.70;5.60;;;;;;4993613;28;20652;-87
2022/11/11 13:24:00;;;;;;;7.00;4.47;;;19.20;1.00;;;;;;4989451;28;20624;-87
2022/11/11 13:26:31;;;;;;;5.10;3.93;;;19.50;1.00;;;;;;4987275;28;20733;-89
2022/11/11 13:29:18;;;;;;;5.00;4.50;;;20.20;1.00;;;;;;4985387;28;20631;-88
2022/11/11 13:31:46;;;;;;;7.03;3.70;;;21.30;1.00;;;;;;4990551;28;21023;-87
2022/11/11 13:34:16;;;;;;;13.03;4.20;;;21.30;1.00;;;;;;5000592;28;20702;-87
2022/11/11 13:36:47;;;;;;;5.60;5.10;;;20.60;1.00;;;;;;4983021;28;21164;-87
2022/11/11 13:39:26;;;;;;;8.90;4.60;;;19.40;1.00;;;;;;4987486;28;20667;-88
2022/11/11 13:41:56;;;;;;;5.07;4.43;;;18.80;3.50;;;;;;4994219;28;20650;-88
2022/11/11 13:44:27;;;;;;;5.20;4.03;;;18.40;99.90;;;;;;4987953;28;21048;-88
2022/11/11 13:47:02;;;;;;;5.40;4.33;;;18.50;99.90;;;;;;4987110;28;20651;-88
2022/11/11 13:49:33;;;;;;;4.73;4.33;;;18.90;55.90;;;;;;4982135;28;20623;-88
2022/11/11 13:52:05;;;;;;;4.70;3.67;;;19.00;90.10;;;;;;4988600;28;20655;-85
2022/11/11 13:54:35;;;;;;;11.43;3.93;;;19.20;1.00;;;;;;4986666;28;20626;-87
2022/11/11 13:57:06;;;;;;;4.40;3.73;;;19.60;1.00;;;;;;4982430;28;21154;-88
2022/11/11 13:59:37;;;;;;;6.20;4.77;;;19.50;1.00;;;;;;4984789;28;20673;-88
2022/11/11 14:02:25;;;;;;;3.80;3.17;;;19.20;1.00;;;;;;4985204;28;20656;-87
2022/11/11 14:05:22;;;;;;;3.80;3.50;;;19.00;36.40;;;;;;4984857;28;20636;-88
2022/11/11 14:07:55;;;;;;;3.67;3.37;;;19.40;99.90;;;;;;4983737;28;20628;-88
2022/11/11 14:10:52;;;;;;;4.57;3.27;;;19.30;1.00;;;;;;4983256;28;20624;-88
2022/11/11 14:13:38;;;;;;;7.93;3.80;;;18.80;99.90;;;;;;4983475;28;20689;-89
2022/11/11 14:16:09;;;;;;;5.33;3.43;;;19.00;2.10;;;;;;4984006;28;20671;-88
2022/11/11 14:18:45;;;;;;;9.53;3.60;;;19.10;1.00;;;;;;4983584;28;20660;-88
2022/11/11 14:21:31;;;;;;;7.90;4.23;;;18.70;2.60;;;;;;4988009;28;20635;-88